LZIB/BTS METAR and TAF weather

Enter ICAO airport designator
Station Type Date Time Source
LZIB METAR 2020/12/06 02:00 UTC NOAA

LZIB 060200Z 08007KT 9999 FEW010 BKN073 07/05 Q1009


Station Type Date Time Source
LZIB Decoded METAR 2020/12/06 02:00 UTC NOAA

Bratislava Ivanka, Slovakia (LZIB) 48-12N 017-12E 142M
Dec 05, 2020 - 09:00 PM EST / 2020.12.06 0200 UTC
Wind: from the E (080 degrees) at 8 MPH (7 KT):0
Visibility: greater than 7 mile(s):0
Sky conditions: mostly cloudy
Temperature: 44 F (7 C)
Dew Point: 41 F (5 C)
Relative Humidity: 87%
Pressure (altimeter): 29.80 in. Hg (1009 hPa)
ob: LZIB 060200Z 08007KT 9999 FEW010 BKN073 07/05 Q1009
cycle: 2

Station Type Date Time Source
LZIB TAF 2020/12/05 18:54 UTC NOAA

TAF LZIB 051700Z 0518/0618 11008KT 9999 FEW012 BKN060 PROB40
TEMPO 0520/0606 6000 BKN010
BECMG 0606/0608 11015KT
BECMG 0608/0610 SCT030
TEMPO 0608/0618 12020G35KT
BECMG 0613/0615 CAVOK

Example: see airport list